createdAt,value
2022-08-21T00:01:09.210Z,98429.03
2022-08-21T00:03:38.930Z,98433.34
2022-08-21T00:06:09.052Z,98431.88
2022-08-21T00:08:44.280Z,98429.09
2022-08-21T00:11:14.054Z,98422.94
2022-08-21T00:13:46.389Z,98430.94
2022-08-21T00:16:16.158Z,98424.41
2022-08-21T00:18:45.856Z,98429.03
2022-08-21T00:21:15.996Z,98428.53
2022-08-21T00:23:45.881Z,98421.63
2022-08-21T00:26:15.640Z,98420.91
2022-08-21T00:28:50.053Z,98433.34
2022-08-21T00:31:20.860Z,98418.63
2022-08-21T00:33:50.455Z,98428.06
2022-08-21T00:36:20.474Z,98430.44
2022-08-21T00:38:50.086Z,98425.53
2022-08-21T00:41:21.096Z,98425.88
2022-08-21T00:44:12.117Z,98426.31
2022-08-21T00:46:43.323Z,98424.72
2022-08-21T00:49:15.473Z,98418.34
2022-08-21T00:51:51.038Z,98420.75
2022-08-21T00:54:22.469Z,98422.88
2022-08-21T00:56:59.613Z,98420.84
2022-08-21T00:59:36.788Z,98413.84
2022-08-21T01:02:08.288Z,98412.78
2022-08-21T01:04:38.838Z,98420.19
2022-08-21T01:07:09.253Z,98424.06
2022-08-21T01:09:40.107Z,98420.06
2022-08-21T01:12:10.979Z,98416.75
2022-08-21T01:14:45.533Z,98414.94
2022-08-21T01:17:17.692Z,98418.97
2022-08-21T01:19:47.971Z,98418.69
2022-08-21T01:22:20.571Z,98417.09
2022-08-21T01:24:51.157Z,98417.69
2022-08-21T01:27:20.757Z,98414.00
2022-08-21T01:29:57.644Z,98410.34
2022-08-21T01:32:28.187Z,98413.91
2022-08-21T01:34:57.878Z,98412.22
2022-08-21T01:37:30.055Z,98403.09
2022-08-21T01:39:59.958Z,98408.03
2022-08-21T01:42:29.720Z,98413.66
2022-08-21T01:44:59.399Z,98410.59
2022-08-21T01:47:29.295Z,98410.22
2022-08-21T01:49:58.993Z,98415.25
2022-08-21T01:52:32.515Z,98408.16
2022-08-21T01:55:02.264Z,98409.41
2022-08-21T01:57:32.201Z,98405.81
2022-08-21T02:00:01.843Z,98399.56
2022-08-21T02:02:31.656Z,98405.47
2022-08-21T02:05:01.403Z,98403.94
2022-08-21T02:07:40.318Z,98402.72
2022-08-21T02:10:13.045Z,98392.13
2022-08-21T02:12:42.800Z,98390.53
2022-08-21T02:15:13.200Z,98392.16
2022-08-21T02:17:45.187Z,98398.13
2022-08-21T02:20:20.452Z,98397.72
2022-08-21T02:22:53.268Z,98398.09
2022-08-21T02:25:24.637Z,98395.38
2022-08-21T02:27:54.728Z,98385.69
2022-08-21T02:30:26.890Z,98391.13
2022-08-21T02:32:56.902Z,98388.66
2022-08-21T02:35:27.554Z,98394.59
2022-08-21T02:38:03.263Z,98396.59
2022-08-21T02:40:40.130Z,98390.75
2022-08-21T02:43:18.962Z,98393.25
2022-08-21T02:45:49.456Z,98388.63
2022-08-21T02:48:22.195Z,98396.34
2022-08-21T02:50:55.994Z,98397.44
2022-08-21T02:53:29.326Z,98389.25
2022-08-21T02:56:02.551Z,98396.34
2022-08-21T02:58:35.332Z,98389.22
2022-08-21T03:01:05.517Z,98393.09
2022-08-21T03:03:36.310Z,98386.94
2022-08-21T03:06:06.846Z,98388.59
2022-08-21T03:08:40.118Z,98393.28
2022-08-21T03:11:10.748Z,98394.50
2022-08-21T03:13:40.684Z,98392.56
2022-08-21T03:16:11.127Z,98391.88
2022-08-21T03:18:41.248Z,98386.22
2022-08-21T03:21:11.830Z,98390.97
2022-08-21T03:23:44.201Z,98389.34
2022-08-21T03:26:14.341Z,98392.66
2022-08-21T03:28:45.826Z,98391.88
2022-08-21T03:31:15.464Z,98395.03
2022-08-21T03:33:45.106Z,98389.03
2022-08-21T03:36:14.960Z,98392.88
2022-08-21T03:38:47.195Z,98387.06
2022-08-21T03:41:16.867Z,98395.81
2022-08-21T03:43:46.538Z,98395.78
2022-08-21T03:46:16.514Z,98396.84
2022-08-21T03:48:46.177Z,98400.81
2022-08-21T03:51:16.632Z,98398.50
2022-08-21T03:53:48.878Z,98396.59
2022-08-21T03:56:19.235Z,98402.91
2022-08-21T03:58:48.919Z,98405.69
2022-08-21T04:01:18.886Z,98406.88
2022-08-21T04:03:48.618Z,98401.72
2022-08-21T04:06:19.080Z,98406.84
2022-08-21T04:08:51.398Z,98406.09
2022-08-21T04:11:21.065Z,98401.38
2022-08-21T04:13:51.059Z,98406.97
2022-08-21T04:16:20.700Z,98409.34
2022-08-21T04:18:50.387Z,98411.72
2022-08-21T04:21:20.031Z,98417.63
2022-08-21T04:23:58.076Z,98416.50
2022-08-21T04:26:28.118Z,98421.97
2022-08-21T04:28:58.621Z,98421.56
2022-08-21T04:31:29.674Z,98432.13
2022-08-21T04:34:00.214Z,98429.34
2022-08-21T04:36:30.337Z,98432.44
2022-08-21T04:39:03.481Z,98443.03
2022-08-21T04:41:33.411Z,98441.53
2022-08-21T04:44:03.159Z,98441.91
2022-08-21T04:46:33.206Z,98450.94
2022-08-21T04:49:02.835Z,98449.44
2022-08-21T04:51:36.324Z,98455.75
2022-08-21T04:54:13.466Z,98449.44
2022-08-21T04:56:47.172Z,98449.44
2022-08-21T04:59:19.623Z,98460.06
2022-08-21T05:01:49.564Z,98450.16
2022-08-21T05:04:25.231Z,98465.56
2022-08-21T05:06:57.877Z,98456.44
2022-08-21T05:09:32.018Z,98458.38
2022-08-21T05:12:01.840Z,98465.09
2022-08-21T05:14:31.479Z,98457.22
2022-08-21T05:17:01.136Z,98461.91
2022-08-21T05:19:31.108Z,98456.41
2022-08-21T05:22:01.856Z,98465.06
2022-08-21T05:24:34.185Z,98465.13
2022-08-21T05:27:04.704Z,98462.75
2022-08-21T05:29:34.280Z,98467.03
2022-08-21T05:32:04.278Z,98466.78
2022-08-21T05:34:33.934Z,98470.72
2022-08-21T05:37:07.513Z,98472.25
2022-08-21T05:40:05.187Z,98474.59
2022-08-21T05:42:29.843Z,98467.09
2022-08-21T05:44:59.536Z,98474.53
2022-08-21T05:47:29.465Z,98476.19
2022-08-21T05:49:59.199Z,98476.16
2022-08-21T05:52:28.939Z,98480.13
2022-08-21T05:55:01.251Z,98482.50
2022-08-21T05:57:31.231Z,98477.41
2022-08-21T06:00:00.966Z,98480.47
2022-08-21T06:02:31.843Z,98483.91
2022-08-21T06:05:01.650Z,98489.47
2022-08-21T06:07:31.321Z,98478.13
2022-08-21T06:10:03.591Z,98480.84
2022-08-21T06:12:33.347Z,98479.16
2022-08-21T06:15:03.133Z,98468.44
2022-08-21T06:17:32.868Z,98474.41
2022-08-21T06:20:02.500Z,98477.47
2022-08-21T06:22:32.609Z,98474.31
2022-08-21T06:25:04.865Z,98486.03
2022-08-21T06:27:34.552Z,98479.75
2022-08-21T06:30:04.230Z,98479.63
2022-08-21T06:32:33.937Z,98470.16
2022-08-21T06:35:03.705Z,98469.34
2022-08-21T06:37:33.390Z,98465.19
2022-08-21T06:40:12.368Z,98471.81
2022-08-21T06:42:43.096Z,98475.91
2022-08-21T06:45:14.368Z,98470.97
2022-08-21T06:47:44.082Z,98475.44
2022-08-21T06:50:14.057Z,98474.28
2022-08-21T06:52:43.867Z,98474.13
2022-08-21T06:55:21.692Z,98470.56
2022-08-21T06:57:52.545Z,98460.50
2022-08-21T07:00:23.069Z,98458.69
2022-08-21T07:02:52.767Z,98460.91
2022-08-21T07:05:22.900Z,98473.09
2022-08-21T07:07:52.586Z,98471.38
2022-08-21T07:10:25.057Z,98465.81
2022-08-21T07:13:00.532Z,98470.59
2022-08-21T07:15:31.710Z,98469.03
2022-08-21T07:18:02.009Z,98468.47
2022-08-21T07:20:33.545Z,98463.06
2022-08-21T07:23:07.047Z,98457.97
2022-08-21T07:25:39.958Z,98465.25
2022-08-21T07:28:09.704Z,98464.22
2022-08-21T07:30:39.413Z,98464.47
2022-08-21T07:33:09.145Z,98463.94
2022-08-21T07:35:38.929Z,98455.94
2022-08-21T07:38:08.622Z,98453.25
2022-08-21T07:40:40.933Z,98444.19
2022-08-21T07:43:10.794Z,98447.44
2022-08-21T07:45:40.949Z,98446.75
2022-08-21T07:48:10.993Z,98448.75
2022-08-21T07:50:40.695Z,98442.31
2022-08-21T07:53:10.533Z,98442.91
2022-08-21T07:55:42.837Z,98452.38
2022-08-21T07:58:12.463Z,98450.94
2022-08-21T08:00:43.245Z,98453.84
2022-08-21T08:03:12.875Z,98453.28
2022-08-21T08:05:42.537Z,98446.16
2022-08-21T08:08:12.237Z,98443.47
2022-08-21T08:10:45.223Z,98439.69
2022-08-21T08:13:15.395Z,98433.88
2022-08-21T08:15:45.058Z,98434.31
2022-08-21T08:18:14.943Z,98431.22
2022-08-21T08:20:45.218Z,98431.06
2022-08-21T08:23:15.871Z,98432.19
2022-08-21T08:25:48.165Z,98432.34
2022-08-21T08:28:17.988Z,98428.00
2022-08-21T08:30:48.194Z,98424.91
2022-08-21T08:33:18.312Z,98427.81
2022-08-21T08:35:50.862Z,98414.53
2022-08-21T08:38:24.422Z,98422.31
2022-08-21T08:41:03.954Z,98418.25
2022-08-21T08:43:35.982Z,98415.41
2022-08-21T08:46:09.886Z,98409.84
2022-08-21T08:48:53.334Z,98413.53
2022-08-21T08:51:28.920Z,98413.44
2022-08-21T08:54:03.811Z,98403.97
2022-08-21T08:56:38.126Z,98410.00
2022-08-21T08:59:15.389Z,98408.53
2022-08-21T09:01:46.047Z,98412.78
2022-08-21T09:04:19.720Z,98406.78
2022-08-21T09:07:02.239Z,98406.13
2022-08-21T09:09:51.832Z,98400.25
2022-08-21T09:12:37.084Z,98395.13
2022-08-21T09:15:17.950Z,98403.56
2022-08-21T09:18:07.586Z,98393.91
2022-08-21T09:20:44.270Z,98389.91
2022-08-21T09:23:26.309Z,98390.69
2022-08-21T09:26:04.303Z,98391.22
2022-08-21T09:28:40.128Z,98380.81
2022-08-21T09:31:12.403Z,98382.53
2022-08-21T09:33:42.125Z,98382.25
2022-08-21T09:36:11.931Z,98381.78
2022-08-21T09:38:42.349Z,98380.53
2022-08-21T09:41:14.300Z,98381.78
2022-08-21T09:43:57.389Z,98377.41
2022-08-21T09:46:29.427Z,98370.53
2022-08-21T09:49:02.471Z,98372.91
2022-08-21T09:51:36.127Z,98373.38
2022-08-21T09:54:18.970Z,98367.28
2022-08-21T09:57:13.328Z,98364.81
2022-08-21T09:59:47.973Z,98360.59
2022-08-21T10:02:30.812Z,98362.00
2022-08-21T10:05:06.166Z,98364.88
2022-08-21T10:07:36.622Z,98360.53
2022-08-21T10:10:09.339Z,98355.56
2022-08-21T10:12:51.763Z,98353.84
2022-08-21T10:15:33.682Z,98349.94
2022-08-21T10:18:12.339Z,98354.53
2022-08-21T10:20:48.878Z,98343.16
2022-08-21T10:23:49.371Z,98343.72
2022-08-21T10:26:30.095Z,98343.09
2022-08-21T10:29:06.559Z,98338.13
2022-08-21T10:31:50.361Z,98334.03
2022-08-21T10:34:33.229Z,98335.56
2022-08-21T10:37:21.105Z,98339.06
2022-08-21T10:40:04.541Z,98330.84
2022-08-21T10:42:42.902Z,98333.50
2022-08-21T10:45:25.966Z,98326.97
2022-08-21T10:48:00.890Z,98331.59
2022-08-21T10:50:35.705Z,98321.72
2022-08-21T10:53:31.738Z,98322.84
2022-08-21T10:56:06.075Z,98324.72
2022-08-21T10:58:40.795Z,98318.03
2022-08-21T11:01:19.563Z,98321.81
2022-08-21T11:03:58.292Z,98316.19
2022-08-21T11:06:34.940Z,98322.00
2022-08-21T11:09:14.713Z,98310.19
2022-08-21T11:11:59.053Z,98309.78
2022-08-21T11:14:40.284Z,98307.78
2022-08-21T11:17:22.852Z,98301.28
2022-08-21T11:20:02.139Z,98302.97
2022-08-21T11:22:39.083Z,98308.19
2022-08-21T11:25:14.597Z,98301.41
2022-08-21T11:27:48.945Z,98298.91
2022-08-21T11:30:18.687Z,98303.16
2022-08-21T11:33:11.152Z,98303.06
2022-08-21T11:35:51.068Z,98294.63
2022-08-21T11:38:31.034Z,98297.03
2022-08-21T11:41:28.196Z,98285.22
2022-08-21T11:44:05.781Z,98289.59
2022-08-21T11:46:53.778Z,98283.78
2022-08-21T11:49:38.177Z,98276.97
2022-08-21T11:52:21.949Z,98278.81
2022-08-21T11:54:58.988Z,98275.66
2022-08-21T11:57:34.726Z,98275.94
2022-08-21T12:00:10.678Z,98271.38
2022-08-21T12:02:45.030Z,98269.47
2022-08-21T12:05:27.269Z,98273.34
2022-08-21T12:08:09.886Z,98267.06
2022-08-21T12:10:43.035Z,98271.22
2022-08-21T12:13:40.309Z,98278.94
2022-08-21T12:16:14.049Z,98276.63
2022-08-21T12:18:44.742Z,98276.97
2022-08-21T12:21:28.771Z,98277.91
2022-08-21T12:24:19.951Z,98270.94
2022-08-21T12:26:55.754Z,98259.56
2022-08-21T12:29:29.337Z,98259.94
2022-08-21T12:32:06.359Z,98264.25
2022-08-21T12:34:39.690Z,98255.13
2022-08-21T12:37:23.052Z,98249.00
2022-08-21T12:39:58.139Z,98238.56
2022-08-21T12:42:38.784Z,98237.69
2022-08-21T12:45:20.049Z,98237.09
2022-08-21T12:47:53.297Z,98240.38
2022-08-21T12:50:28.526Z,98237.00
2022-08-21T12:53:03.288Z,98236.47
2022-08-21T12:55:37.240Z,98226.34
2022-08-21T12:58:09.411Z,98235.91
2022-08-21T13:00:39.114Z,98232.22
2022-08-21T13:03:10.180Z,98231.69
2022-08-21T13:05:41.233Z,98236.41
2022-08-21T13:08:14.552Z,98233.31
2022-08-21T13:10:49.233Z,98231.00
2022-08-21T13:13:28.127Z,98234.97
2022-08-21T13:16:02.987Z,98235.69
2022-08-21T13:18:36.776Z,98231.53
2022-08-21T13:21:09.395Z,98230.44
2022-08-21T13:23:39.343Z,98223.53
2022-08-21T13:26:19.779Z,98218.13
2022-08-21T13:28:51.023Z,98214.56
2022-08-21T13:31:24.191Z,98214.53
2022-08-21T13:33:54.194Z,98226.38
2022-08-21T13:36:29.627Z,98210.44
2022-08-21T13:39:00.420Z,98216.41
2022-08-21T13:41:35.961Z,98211.44
2022-08-21T13:44:08.395Z,98220.63
2022-08-21T13:46:40.043Z,98215.66
2022-08-21T13:49:12.508Z,98210.81
2022-08-21T13:51:43.623Z,98209.34
2022-08-21T13:54:28.117Z,98210.72
2022-08-21T13:57:00.461Z,98197.47
2022-08-21T13:59:32.872Z,98197.56
2022-08-21T14:02:05.431Z,98201.41
2022-08-21T14:04:40.186Z,98196.56
2022-08-21T14:07:20.465Z,98199.72
2022-08-21T14:09:51.335Z,98206.69
2022-08-21T14:12:32.065Z,98201.59
2022-08-21T14:15:06.111Z,98192.94
2022-08-21T14:17:38.584Z,98196.78
2022-08-21T14:20:10.586Z,98193.13
2022-08-21T14:22:43.039Z,98191.19
2022-08-21T14:25:17.737Z,98181.41
2022-08-21T14:27:56.148Z,98186.44
2022-08-21T14:30:33.418Z,98186.19
2022-08-21T14:33:04.239Z,98187.56
2022-08-21T14:35:34.062Z,98184.75
2022-08-21T14:38:03.772Z,98181.53
2022-08-21T14:40:33.653Z,98186.19
2022-08-21T14:43:06.081Z,98180.28
2022-08-21T14:45:37.657Z,98173.72
2022-08-21T14:48:07.560Z,98180.06
2022-08-21T14:50:37.508Z,98173.19
2022-08-21T14:53:10.774Z,98174.22
2022-08-21T14:55:54.567Z,98169.75
2022-08-21T14:58:27.274Z,98162.19
2022-08-21T15:00:59.161Z,98164.69
2022-08-21T15:03:29.077Z,98160.59
2022-08-21T15:05:58.888Z,98153.56
2022-08-21T15:08:28.642Z,98158.50
2022-08-21T15:11:11.825Z,98147.06
2022-08-21T15:13:46.153Z,98146.41
2022-08-21T15:16:16.217Z,98150.06
2022-08-21T15:18:45.967Z,98151.81
2022-08-21T15:21:15.715Z,98148.31
2022-08-21T15:23:45.352Z,98142.56
2022-08-21T15:26:15.349Z,98149.78
2022-08-21T15:28:50.405Z,98140.91
2022-08-21T15:31:20.181Z,98137.88
2022-08-21T15:33:49.898Z,98140.22
2022-08-21T15:36:19.775Z,98137.16
2022-08-21T15:38:49.643Z,98138.22
2022-08-21T15:41:19.659Z,98137.44
2022-08-21T15:43:54.511Z,98138.41
2022-08-21T15:46:24.611Z,98128.94
2022-08-21T15:48:59.239Z,98126.66
2022-08-21T15:51:29.549Z,98133.09
2022-08-21T15:53:59.232Z,98125.47
2022-08-21T15:56:31.491Z,98119.78
2022-08-21T15:59:10.991Z,98122.59
2022-08-21T16:01:44.867Z,98119.19
2022-08-21T16:04:19.201Z,98117.06
2022-08-21T16:06:53.447Z,98112.31
2022-08-21T16:09:26.949Z,98121.59
2022-08-21T16:11:56.988Z,98114.56
2022-08-21T16:14:29.829Z,98112.91
2022-08-21T16:17:00.158Z,98113.16
2022-08-21T16:19:31.974Z,98106.66
2022-08-21T16:22:02.136Z,98104.53
2022-08-21T16:24:31.919Z,98113.56
2022-08-21T16:27:04.057Z,98108.06
2022-08-21T16:29:41.206Z,98104.38
2022-08-21T16:32:11.798Z,98096.16
2022-08-21T16:34:45.904Z,98103.38
2022-08-21T16:37:24.541Z,98097.66
2022-08-21T16:39:54.580Z,98096.13
2022-08-21T16:42:27.743Z,98102.31
2022-08-21T16:45:00.368Z,98097.56
2022-08-21T16:47:30.328Z,98089.78
2022-08-21T16:50:00.135Z,98090.28
2022-08-21T16:52:30.152Z,98086.88
2022-08-21T16:54:59.943Z,98081.28
2022-08-21T16:57:30.439Z,98081.66
2022-08-21T17:00:03.560Z,98081.34
2022-08-21T17:02:38.229Z,98083.53
2022-08-21T17:05:13.828Z,98078.59
2022-08-21T17:07:44.816Z,98085.13
2022-08-21T17:10:16.860Z,98085.66
2022-08-21T17:12:51.544Z,98073.38
2022-08-21T17:15:27.365Z,98077.69
2022-08-21T17:17:57.533Z,98084.44
2022-08-21T17:20:27.402Z,98082.44
2022-08-21T17:22:57.576Z,98084.97
2022-08-21T17:25:28.079Z,98082.06
2022-08-21T17:27:58.504Z,98089.06
2022-08-21T17:30:31.390Z,98081.78
2022-08-21T17:33:02.835Z,98088.16
2022-08-21T17:35:32.799Z,98089.56
2022-08-21T17:38:02.459Z,98074.41
2022-08-21T17:40:36.232Z,98084.81
2022-08-21T17:43:12.927Z,98073.97
2022-08-21T17:45:46.452Z,98076.78
2022-08-21T17:48:16.174Z,98082.81
2022-08-21T17:50:46.102Z,98084.06
2022-08-21T17:53:15.807Z,98077.69
2022-08-21T17:55:45.712Z,98083.91
2022-08-21T17:58:18.230Z,98087.78
2022-08-21T18:00:50.989Z,98086.25
2022-08-21T18:03:24.865Z,98089.00
2022-08-21T18:05:57.155Z,98083.72
2022-08-21T18:08:26.896Z,98078.00
2022-08-21T18:10:58.886Z,98080.19
2022-08-21T18:13:32.267Z,98080.78
2022-08-21T18:16:05.519Z,98087.88
2022-08-21T18:18:40.049Z,98096.19
2022-08-21T18:21:10.410Z,98092.28
2022-08-21T18:23:44.008Z,98092.28
2022-08-21T18:26:17.222Z,98095.16
2022-08-21T18:28:47.232Z,98091.72
2022-08-21T18:31:19.519Z,98094.16
2022-08-21T18:33:57.856Z,98096.00
2022-08-21T18:36:29.463Z,98100.91
2022-08-21T18:39:19.524Z,98110.75
2022-08-21T18:41:50.763Z,98109.59
2022-08-21T18:44:23.877Z,98117.78
2022-08-21T18:47:00.065Z,98111.25
2022-08-21T18:49:30.312Z,98112.25
2022-08-21T18:52:00.767Z,98113.00
2022-08-21T18:54:33.158Z,98116.09
2022-08-21T18:57:05.649Z,98116.50
2022-08-21T18:59:38.802Z,98121.25
2022-08-21T19:02:12.568Z,98118.03
2022-08-21T19:04:44.734Z,98121.97
2022-08-21T19:07:16.407Z,98124.88
2022-08-21T19:10:07.554Z,98121.22
2022-08-21T19:12:37.360Z,98129.81
2022-08-21T19:15:11.412Z,98128.56
2022-08-21T19:17:44.413Z,98128.47
2022-08-21T19:23:08.766Z,98138.44
2022-08-21T19:25:41.821Z,98137.34
2022-08-21T19:28:16.102Z,98141.59
2022-08-21T19:30:49.318Z,98139.88
2022-08-21T19:33:29.582Z,98143.97
2022-08-21T19:35:59.583Z,98146.13
2022-08-21T19:38:29.642Z,98145.34
2022-08-21T19:41:00.163Z,98147.78
2022-08-21T19:43:30.167Z,98148.81
2022-08-21T19:46:01.865Z,98146.47
2022-08-21T19:48:34.287Z,98155.81
2022-08-21T19:51:03.979Z,98146.66
2022-08-21T19:53:35.105Z,98150.00
2022-08-21T19:56:04.846Z,98149.00
2022-08-21T19:58:38.521Z,98150.91
2022-08-21T20:01:11.529Z,98141.63
2022-08-21T20:03:53.881Z,98152.69
2022-08-21T20:06:41.288Z,98154.34
2022-08-21T20:09:13.572Z,98151.94
2022-08-21T20:11:47.305Z,98151.44
2022-08-21T20:14:22.293Z,98148.69
2022-08-21T20:16:53.450Z,98155.34
2022-08-21T20:19:25.880Z,98154.13
2022-08-21T20:22:01.235Z,98149.78
2022-08-21T20:24:32.823Z,98160.44
2022-08-21T20:27:06.104Z,98157.38
2022-08-21T20:29:39.174Z,98153.47
2022-08-21T20:32:11.965Z,98158.63
2022-08-21T20:34:45.254Z,98156.66
2022-08-21T20:40:08.219Z,98150.06
2022-08-21T20:42:38.764Z,98158.34
2022-08-21T20:45:09.911Z,98161.72
2022-08-21T20:47:40.584Z,98155.84
2022-08-21T20:50:15.512Z,98155.91
2022-08-21T20:52:45.394Z,98158.69
2022-08-21T20:55:18.226Z,98157.22
2022-08-21T20:57:55.517Z,98162.28
2022-08-21T21:00:27.760Z,98162.09
2022-08-21T21:03:04.478Z,98157.84
2022-08-21T21:05:41.277Z,98161.59
2022-08-21T21:08:15.101Z,98158.19
2022-08-21T21:10:51.623Z,98167.22
2022-08-21T21:13:27.092Z,98163.91
2022-08-21T21:15:58.697Z,98156.13
2022-08-21T21:18:35.031Z,98159.78
2022-08-21T21:21:15.686Z,98164.13
2022-08-21T21:23:52.538Z,98158.03
2022-08-21T21:26:29.978Z,98154.69
2022-08-21T21:29:09.915Z,98155.28
2022-08-21T21:31:40.284Z,98154.69
2022-08-21T21:34:17.033Z,98152.69
2022-08-21T21:36:56.608Z,98156.16
2022-08-21T21:39:36.400Z,98154.59
2022-08-21T21:42:19.042Z,98153.03
2022-08-21T21:45:12.933Z,98156.03
2022-08-21T21:47:53.430Z,98152.81
2022-08-21T21:50:37.389Z,98151.81
2022-08-21T21:53:26.638Z,98155.09
2022-08-21T21:56:10.326Z,98163.28
2022-08-21T21:59:09.864Z,98161.97
2022-08-21T22:01:46.403Z,98152.53
2022-08-21T22:04:28.349Z,98154.16
2022-08-21T22:07:08.134Z,98155.06
2022-08-21T22:09:53.825Z,98157.31
2022-08-21T22:12:34.422Z,98153.09
2022-08-21T22:15:26.463Z,98155.50
2022-08-21T22:18:03.742Z,98160.34
2022-08-21T22:20:43.208Z,98164.91
2022-08-21T22:23:18.397Z,98168.91
2022-08-21T22:25:54.866Z,98169.50
2022-08-21T22:28:28.537Z,98162.66
2022-08-21T22:31:14.142Z,98165.06
2022-08-21T22:33:43.987Z,98168.81
2022-08-21T22:36:20.097Z,98170.66
2022-08-21T22:38:50.806Z,98175.91
2022-08-21T22:41:28.603Z,98161.63
2022-08-21T22:44:01.728Z,98158.50
2022-08-21T22:46:36.608Z,98172.19
2022-08-21T22:49:15.745Z,98171.13
2022-08-21T22:51:49.253Z,98168.78
2022-08-21T22:54:25.460Z,98168.00
2022-08-21T22:57:04.602Z,98164.75
2022-08-21T22:59:38.024Z,98177.19
2022-08-21T23:02:12.525Z,98176.75
2022-08-21T23:04:48.976Z,98178.81
2022-08-21T23:07:43.080Z,98168.31
2022-08-21T23:10:33.264Z,98184.28
2022-08-21T23:13:10.399Z,98174.13
2022-08-21T23:15:48.433Z,98180.66
2022-08-21T23:18:28.519Z,98172.78
2022-08-21T23:21:16.056Z,98176.13
2022-08-21T23:24:01.645Z,98169.09
2022-08-21T23:26:39.147Z,98173.47
2022-08-21T23:32:39.040Z,98164.63
2022-08-21T23:35:17.923Z,98163.38
2022-08-21T23:37:52.282Z,98169.78
2022-08-21T23:40:36.325Z,98165.75
2022-08-21T23:43:25.036Z,98167.03
2022-08-21T23:46:12.176Z,98160.72
2022-08-21T23:48:57.907Z,98158.28
2022-08-21T23:51:38.832Z,98161.25
2022-08-21T23:54:16.008Z,98163.41
2022-08-21T23:57:00.287Z,98167.72
2022-08-21T23:59:46.186Z,98159.38
